Time;durP1;ratioP1;P1;durP2;ratioP2;P2;SDS_P1;SDS_P2;PMS_P1;PMS_P2;Temp;Humidity;BMP_temperature;BMP_pressure;BME280_temperature;BME280_humidity;BME280_pressure;Samples;Min_cycle;Max_cycle;Signal;HPM_P1;HPM_P2
2021/04/30 00:00:36;;;;;;;18.55;10.77;;;12.20;76.50;;;;;;5072518;28;20468;-60
2021/04/30 00:03:03;;;;;;;18.65;10.43;;;12.20;76.30;;;;;;5072045;28;20028;-60
2021/04/30 00:05:29;;;;;;;20.65;9.45;;;12.20;76.30;;;;;;5072220;28;20041;-60
2021/04/30 00:07:58;;;;;;;17.50;10.52;;;12.20;76.20;;;;;;5072462;28;20021;-60
2021/04/30 00:10:25;;;;;;;20.95;10.43;;;12.20;76.00;;;;;;5071525;28;20036;-59
2021/04/30 00:12:51;;;;;;;19.13;10.68;;;12.20;75.90;;;;;;5072447;28;20569;-60
2021/04/30 00:15:17;;;;;;;19.27;9.35;;;12.30;75.80;;;;;;5072350;28;20111;-59
2021/04/30 00:17:43;;;;;;;18.63;10.00;;;12.20;75.70;;;;;;5071527;28;20032;-60
2021/04/30 00:20:10;;;;;;;19.67;10.80;;;12.20;75.60;;;;;;5072467;28;20029;-60
2021/04/30 00:22:36;;;;;;;17.50;9.70;;;12.20;75.80;;;;;;5072078;28;20488;-60
2021/04/30 00:25:02;;;;;;;19.13;10.63;;;12.10;75.90;;;;;;5071325;28;20098;-60
2021/04/30 00:27:27;;;;;;;22.55;10.73;;;12.10;76.00;;;;;;5072247;28;20056;-59
2021/04/30 00:29:53;;;;;;;18.30;9.80;;;12.10;76.10;;;;;;5072363;28;20111;-60
2021/04/30 00:32:19;;;;;;;21.05;10.57;;;12.10;76.20;;;;;;5072690;28;20025;-60
2021/04/30 00:34:45;;;;;;;21.20;9.80;;;12.10;76.30;;;;;;5075787;28;20025;-60
2021/04/30 00:37:11;;;;;;;17.67;10.50;;;12.10;76.20;;;;;;5075152;28;20025;-60
2021/04/30 00:39:36;;;;;;;17.25;9.35;;;12.10;76.10;;;;;;5075756;28;20127;-60
2021/04/30 00:42:04;;;;;;;13.43;8.80;;;12.10;76.00;;;;;;5075867;28;20424;-60
2021/04/30 00:44:30;;;;;;;15.57;10.10;;;12.10;75.80;;;;;;5075068;28;20064;-60
2021/04/30 00:46:56;;;;;;;21.67;9.65;;;12.10;75.70;;;;;;5067039;28;20079;-59
2021/04/30 00:49:22;;;;;;;15.43;9.43;;;12.10;75.70;;;;;;5075684;28;20035;-60
2021/04/30 00:51:48;;;;;;;15.60;9.85;;;12.10;75.70;;;;;;5068807;28;20029;-60
2021/04/30 00:54:14;;;;;;;17.35;8.82;;;12.00;75.60;;;;;;5056849;28;20078;-60
2021/04/30 00:56:40;;;;;;;21.25;10.48;;;12.00;75.70;;;;;;5068647;28;20033;-60
2021/04/30 00:59:06;;;;;;;20.63;9.55;;;12.00;75.80;;;;;;5068046;28;20055;-60
2021/04/30 01:01:33;;;;;;;16.10;10.02;;;12.00;75.90;;;;;;5075440;28;20039;-60
2021/04/30 01:04:00;;;;;;;20.08;9.43;;;11.90;76.00;;;;;;5075367;28;20066;-59
2021/04/30 01:06:25;;;;;;;18.00;9.45;;;12.00;76.10;;;;;;5060261;28;20036;-60
2021/04/30 01:08:51;;;;;;;19.00;9.32;;;11.90;76.00;;;;;;5075509;28;20464;-59
2021/04/30 01:11:17;;;;;;;17.35;9.52;;;11.90;76.10;;;;;;5075374;28;20086;-60
2021/04/30 01:13:43;;;;;;;27.55;10.00;;;12.00;76.20;;;;;;5074804;28;20025;-59
2021/04/30 01:16:09;;;;;;;19.02;9.07;;;11.90;76.10;;;;;;5075306;28;20039;-60
2021/04/30 01:18:45;;;;;;;16.42;10.00;;;12.00;76.30;;;;;;5075111;28;20103;-60
2021/04/30 01:21:12;;;;;;;18.98;9.70;;;11.90;76.40;;;;;;5074271;28;20028;-60
2021/04/30 01:24:04;;;;;;;25.65;10.95;;;11.90;76.30;;;;;;5061127;28;20398;-60
2021/04/30 01:26:30;;;;;;;23.70;9.90;;;11.90;76.30;;;;;;5072327;28;20048;-60
2021/04/30 01:28:55;;;;;;;20.25;9.95;;;11.90;76.40;;;;;;5061091;28;20081;-60
2021/04/30 01:31:22;;;;;;;17.33;9.85;;;11.90;76.50;;;;;;5074960;28;20043;-60
2021/04/30 01:33:55;;;;;;;18.30;9.05;;;11.90;76.50;;;;;;5074315;28;20107;-60
2021/04/30 01:36:21;;;;;;;20.90;9.57;;;11.90;76.50;;;;;;5075035;28;20422;-60
2021/04/30 01:38:47;;;;;;;19.48;9.57;;;11.90;76.30;;;;;;5060689;28;20033;-59
2021/04/30 01:41:12;;;;;;;16.80;9.80;;;11.90;76.40;;;;;;5074046;28;20059;-60
2021/04/30 01:43:38;;;;;;;20.75;10.35;;;11.90;76.40;;;;;;5074418;28;20115;-60
2021/04/30 01:46:06;;;;;;;25.15;9.70;;;11.90;76.50;;;;;;5074436;28;20080;-60
2021/04/30 01:48:33;;;;;;;18.23;8.25;;;11.90;76.50;;;;;;5074108;28;20036;-60
2021/04/30 01:51:01;;;;;;;19.63;8.38;;;11.90;76.60;;;;;;5074615;28;20441;-60
2021/04/30 01:53:29;;;;;;;19.85;7.32;;;11.90;76.70;;;;;;5074747;28;20031;-60
2021/04/30 01:55:59;;;;;;;18.58;8.10;;;11.90;76.60;;;;;;5070414;28;20361;-60
2021/04/30 01:58:25;;;;;;;15.25;7.38;;;11.90;76.50;;;;;;5064215;28;20039;-60
2021/04/30 02:00:52;;;;;;;19.10;8.13;;;11.90;76.30;;;;;;5074174;28;20025;-60
2021/04/30 02:03:18;;;;;;;18.52;7.63;;;11.90;76.30;;;;;;5073902;28;20032;-60
2021/04/30 02:05:44;;;;;;;16.02;7.47;;;12.00;76.30;;;;;;5074401;28;20081;-60
2021/04/30 02:08:11;;;;;;;20.75;8.48;;;12.00;76.30;;;;;;5074344;28;20059;-60
2021/04/30 02:10:38;;;;;;;18.42;8.05;;;11.90;76.30;;;;;;5073635;28;20039;-60
2021/04/30 02:13:05;;;;;;;22.23;8.98;;;11.90;76.50;;;;;;5073931;28;20033;-60
2021/04/30 02:15:33;;;;;;;16.67;8.05;;;11.90;76.70;;;;;;5073636;28;20064;-60
2021/04/30 02:17:59;;;;;;;17.25;8.13;;;11.90;76.80;;;;;;5074050;28;20043;-60
2021/04/30 02:20:25;;;;;;;25.42;8.57;;;11.90;76.90;;;;;;5074121;28;20028;-60
2021/04/30 02:22:51;;;;;;;17.65;8.77;;;11.90;76.90;;;;;;5073029;28;20036;-60
2021/04/30 02:25:19;;;;;;;24.00;9.05;;;11.90;77.10;;;;;;5073840;28;20037;-60
2021/04/30 02:27:46;;;;;;;20.13;8.85;;;11.90;77.30;;;;;;5073831;28;20028;-60
2021/04/30 02:30:14;;;;;;;20.67;9.32;;;11.90;77.40;;;;;;5073205;28;20038;-60
2021/04/30 02:32:41;;;;;;;22.33;8.98;;;11.80;77.50;;;;;;5073736;28;20044;-60
2021/04/30 02:35:14;;;;;;;24.13;8.70;;;11.80;77.50;;;;;;5073750;28;20024;-60
2021/04/30 02:37:40;;;;;;;22.90;9.20;;;11.80;77.70;;;;;;5073086;28;20111;-60
2021/04/30 02:40:10;;;;;;;19.42;8.38;;;11.80;77.70;;;;;;5063089;28;20468;-60
2021/04/30 02:42:36;;;;;;;25.27;8.38;;;11.90;77.80;;;;;;5071688;28;20040;-60
2021/04/30 02:45:04;;;;;;;21.98;9.02;;;11.90;77.80;;;;;;5072146;28;20025;-60
2021/04/30 02:47:31;;;;;;;19.42;8.25;;;11.90;77.80;;;;;;5073002;28;20396;-59
2021/04/30 02:50:01;;;;;;;20.60;8.52;;;11.90;77.80;;;;;;5073119;28;20110;-60
2021/04/30 02:52:27;;;;;;;24.67;8.65;;;11.80;77.90;;;;;;5070462;28;20024;-60
2021/04/30 02:54:54;;;;;;;19.52;7.85;;;11.80;77.90;;;;;;5072482;28;20021;-60
2021/04/30 02:57:20;;;;;;;28.60;8.68;;;11.80;78.00;;;;;;5067593;28;20028;-59
2021/04/30 02:59:46;;;;;;;20.52;7.80;;;11.80;78.00;;;;;;5072247;28;20070;-60
2021/04/30 03:02:13;;;;;;;22.45;9.55;;;11.80;78.10;;;;;;5072913;28;20475;-60
2021/04/30 03:04:39;;;;;;;19.35;7.55;;;11.80;78.10;;;;;;5072403;28;20430;-60
2021/04/30 03:07:06;;;;;;;20.58;8.07;;;11.80;78.20;;;;;;5071883;28;20419;-60
2021/04/30 03:09:31;;;;;;;25.90;8.93;;;11.80;78.20;;;;;;5071458;28;20033;-60
2021/04/30 03:11:58;;;;;;;19.83;8.93;;;11.80;78.20;;;;;;5070052;28;20093;-60
2021/04/30 03:14:24;;;;;;;20.77;9.30;;;11.80;78.20;;;;;;5072679;28;20023;-60
2021/04/30 03:16:49;;;;;;;20.92;8.00;;;11.80;78.10;;;;;;5072748;28;20132;-60
2021/04/30 03:19:15;;;;;;;25.20;8.82;;;11.80;78.10;;;;;;5065911;28;20115;-59
2021/04/30 03:21:41;;;;;;;21.77;8.25;;;11.90;78.10;;;;;;5072336;28;20020;-60
2021/04/30 03:24:08;;;;;;;17.65;8.05;;;11.90;78.00;;;;;;5072383;28;20032;-60
2021/04/30 03:26:34;;;;;;;18.90;8.02;;;11.90;77.90;;;;;;5070844;28;20033;-60
2021/04/30 03:29:00;;;;;;;20.77;9.23;;;11.90;77.90;;;;;;5072458;28;20188;-60
2021/04/30 03:31:26;;;;;;;25.25;8.65;;;12.00;77.90;;;;;;5072281;28;20468;-60
2021/04/30 03:33:52;;;;;;;28.42;9.07;;;12.00;77.90;;;;;;5060464;28;20032;-60
2021/04/30 03:36:19;;;;;;;21.08;8.82;;;12.00;77.80;;;;;;5072229;28;20028;-60
2021/04/30 03:38:46;;;;;;;21.83;8.43;;;12.00;77.80;;;;;;5072196;28;20059;-60
2021/04/30 03:41:13;;;;;;;27.00;9.45;;;12.00;77.70;;;;;;5071788;28;20446;-60
2021/04/30 03:43:39;;;;;;;25.73;8.85;;;12.00;77.60;;;;;;5072251;28;20012;-60
2021/04/30 03:46:04;;;;;;;26.63;9.10;;;12.00;77.60;;;;;;5071920;28;20408;-59
2021/04/30 03:48:31;;;;;;;19.27;8.45;;;12.00;77.60;;;;;;5071532;28;20107;-60
2021/04/30 03:50:57;;;;;;;26.27;9.02;;;12.00;77.60;;;;;;5072002;28;20036;-60
2021/04/30 03:53:23;;;;;;;25.23;8.85;;;12.10;77.60;;;;;;5071209;28;20162;-60
2021/04/30 03:55:49;;;;;;;21.88;8.45;;;12.00;77.60;;;;;;5071815;28;20082;-60
2021/04/30 03:58:15;;;;;;;21.27;9.25;;;12.00;77.60;;;;;;5072615;28;20035;-60
2021/04/30 04:00:41;;;;;;;25.25;8.15;;;12.00;77.50;;;;;;5072301;28;20082;-60
2021/04/30 04:03:07;;;;;;;19.67;8.27;;;12.00;77.50;;;;;;5071865;28;20029;-60
2021/04/30 04:05:33;;;;;;;21.50;8.23;;;12.10;77.40;;;;;;5071122;28;20040;-60
2021/04/30 04:07:59;;;;;;;21.42;8.00;;;12.00;77.30;;;;;;5074505;28;20025;-60
2021/04/30 04:10:25;;;;;;;19.48;9.00;;;12.10;77.20;;;;;;5076037;28;20421;-60
2021/04/30 04:12:51;;;;;;;21.60;8.55;;;12.00;77.20;;;;;;5076437;28;20048;-59
2021/04/30 04:15:16;;;;;;;19.95;8.07;;;12.00;77.10;;;;;;5075857;28;20025;-60
2021/04/30 04:17:43;;;;;;;16.63;8.05;;;12.00;77.00;;;;;;5076205;28;20060;-60
2021/04/30 04:20:09;;;;;;;24.77;8.63;;;12.00;77.00;;;;;;5076249;28;20039;-60
2021/04/30 04:22:35;;;;;;;17.55;9.05;;;12.00;77.00;;;;;;5075680;28;20479;-60
2021/04/30 04:25:01;;;;;;;22.35;8.73;;;11.90;77.00;;;;;;5076043;28;20020;-60
2021/04/30 04:27:27;;;;;;;21.65;8.73;;;11.90;77.00;;;;;;5074939;28;20392;-60
2021/04/30 04:29:52;;;;;;;21.55;8.18;;;11.90;77.00;;;;;;5075351;28;20160;-60
2021/04/30 04:32:18;;;;;;;16.55;7.85;;;11.90;76.90;;;;;;5076071;28;20032;-60
2021/04/30 04:34:44;;;;;;;20.63;8.25;;;11.90;76.80;;;;;;5075932;28;20028;-60
2021/04/30 04:37:09;;;;;;;22.38;7.53;;;11.80;76.70;;;;;;5074055;28;20122;-59
2021/04/30 04:39:35;;;;;;;17.50;7.20;;;11.90;76.60;;;;;;5076131;28;20032;-59
2021/04/30 04:42:04;;;;;;;21.38;8.05;;;11.80;76.00;;;;;;5075702;28;20086;-60
2021/04/30 04:44:30;;;;;;;16.27;6.95;;;11.80;75.80;;;;;;5075130;28;20035;-60
2021/04/30 04:46:56;;;;;;;14.68;7.78;;;11.70;75.50;;;;;;5075404;28;20052;-60
2021/04/30 04:49:22;;;;;;;20.83;7.97;;;11.70;75.40;;;;;;5075721;28;20021;-60
2021/04/30 04:51:48;;;;;;;19.25;8.48;;;11.70;75.10;;;;;;5075068;28;20055;-60
2021/04/30 04:54:13;;;;;;;22.70;9.05;;;11.60;75.20;;;;;;5075305;28;20048;-59
2021/04/30 04:56:39;;;;;;;21.50;9.82;;;11.60;75.60;;;;;;5075764;28;20078;-60
2021/04/30 04:59:05;;;;;;;23.38;10.48;;;11.60;76.00;;;;;;5074629;28;20034;-60
2021/04/30 05:01:31;;;;;;;21.23;9.32;;;11.60;77.00;;;;;;5075697;28;20032;-60
2021/04/30 05:03:57;;;;;;;18.83;8.38;;;11.70;76.60;;;;;;5075410;28;20032;-60
2021/04/30 05:06:23;;;;;;;17.52;7.88;;;11.70;76.40;;;;;;5073348;28;20032;-59
2021/04/30 05:08:48;;;;;;;17.27;8.90;;;11.70;76.30;;;;;;5075537;28;20559;-60
2021/04/30 05:11:14;;;;;;;15.77;7.70;;;11.70;76.10;;;;;;5075210;28;20395;-60
2021/04/30 05:13:40;;;;;;;17.25;7.82;;;11.60;75.80;;;;;;5074748;28;20056;-61
2021/04/30 05:16:06;;;;;;;17.55;7.68;;;11.60;75.50;;;;;;5075100;28;20035;-60
2021/04/30 05:18:32;;;;;;;16.67;8.75;;;11.60;75.30;;;;;;5073982;28;20021;-60
2021/04/30 05:20:58;;;;;;;19.30;8.07;;;11.50;75.90;;;;;;5075217;28;20101;-60
2021/04/30 05:23:24;;;;;;;18.27;8.15;;;11.60;75.40;;;;;;5075155;28;20031;-60
2021/04/30 05:25:54;;;;;;;17.00;7.78;;;11.60;75.40;;;;;;5074444;28;20118;-60
2021/04/30 05:28:19;;;;;;;18.00;7.80;;;11.60;75.60;;;;;;5074945;28;20111;-60
2021/04/30 05:30:46;;;;;;;17.90;8.25;;;11.60;75.60;;;;;;5074942;28;20590;-60
2021/04/30 05:33:12;;;;;;;17.25;7.95;;;11.60;75.70;;;;;;5074057;28;20032;-60
2021/04/30 05:35:37;;;;;;;20.00;8.48;;;11.60;75.80;;;;;;5075172;28;20028;-60
2021/04/30 05:38:06;;;;;;;23.45;8.93;;;11.60;76.00;;;;;;5074745;28;20458;-60
2021/04/30 05:40:35;;;;;;;29.17;9.23;;;11.60;76.20;;;;;;5074289;28;20352;-60
2021/04/30 05:43:01;;;;;;;18.40;7.90;;;11.60;76.50;;;;;;5074868;28;20041;-60
2021/04/30 05:45:27;;;;;;;19.08;9.10;;;11.70;76.80;;;;;;5074378;28;20044;-60
2021/04/30 05:47:56;;;;;;;26.88;8.75;;;11.70;77.10;;;;;;5073893;28;20090;-60
2021/04/30 05:50:21;;;;;;;20.60;8.88;;;11.80;77.50;;;;;;5074760;28;20028;-60
2021/04/30 05:52:47;;;;;;;18.42;9.27;;;11.80;77.60;;;;;;5074554;28;20021;-60
2021/04/30 05:55:15;;;;;;;21.15;8.32;;;11.80;77.90;;;;;;5073594;28;20119;-60
2021/04/30 05:57:41;;;;;;;16.02;8.45;;;11.90;78.00;;;;;;5074173;28;20115;-60
2021/04/30 06:00:10;;;;;;;20.15;8.63;;;11.90;78.20;;;;;;5069377;28;20016;-60
2021/04/30 06:02:39;;;;;;;17.98;8.68;;;11.90;78.30;;;;;;5082144;28;20033;-60
2021/04/30 06:05:06;;;;;;;25.85;8.15;;;11.90;78.20;;;;;;5073898;28;20039;-60
2021/04/30 06:07:32;;;;;;;21.27;8.50;;;12.00;78.30;;;;;;5073893;28;20028;-60
2021/04/30 06:09:58;;;;;;;17.60;7.95;;;12.00;78.30;;;;;;5073083;28;20059;-60
2021/04/30 06:12:23;;;;;;;18.58;8.98;;;12.10;78.40;;;;;;5067463;28;20028;-60
2021/04/30 06:14:49;;;;;;;24.00;7.65;;;12.10;78.50;;;;;;5072805;28;20013;-60
2021/04/30 06:17:15;;;;;;;20.33;8.40;;;12.10;78.50;;;;;;5073886;28;20029;-60
2021/04/30 06:19:41;;;;;;;22.92;7.35;;;12.10;78.50;;;;;;5070338;28;20119;-59
2021/04/30 06:22:06;;;;;;;15.02;7.63;;;12.10;78.50;;;;;;5073028;28;20107;-60
2021/04/30 06:24:32;;;;;;;18.23;7.95;;;12.20;78.60;;;;;;5073404;28;20020;-60
2021/04/30 06:26:58;;;;;;;25.95;7.22;;;12.20;78.60;;;;;;5073359;28;20411;-60
2021/04/30 06:29:23;;;;;;;23.70;7.93;;;12.20;78.50;;;;;;5071998;28;20067;-60
2021/04/30 06:31:49;;;;;;;25.63;8.07;;;12.20;78.40;;;;;;5073141;28;20051;-60
2021/04/30 06:34:15;;;;;;;20.90;7.70;;;12.20;78.20;;;;;;5073857;28;20364;-60
2021/04/30 06:36:40;;;;;;;26.50;7.93;;;12.20;78.30;;;;;;5072851;28;20032;-60
2021/04/30 06:39:09;;;;;;;21.13;8.20;;;12.20;78.50;;;;;;5073407;28;20031;-59
2021/04/30 06:41:35;;;;;;;24.58;7.07;;;12.20;78.50;;;;;;5073136;28;20103;-60
2021/04/30 06:44:01;;;;;;;32.45;8.40;;;12.20;78.50;;;;;;5070715;28;20103;-60
2021/04/30 06:46:27;;;;;;;21.15;8.10;;;12.20;78.60;;;;;;5073018;28;20041;-60
2021/04/30 06:48:53;;;;;;;21.52;8.55;;;12.30;78.80;;;;;;5073352;28;20468;-60
2021/04/30 06:51:18;;;;;;;29.27;9.13;;;12.30;78.90;;;;;;5072230;28;20264;-60
2021/04/30 06:53:44;;;;;;;19.20;8.18;;;12.30;78.90;;;;;;5072665;28;20020;-60
2021/04/30 06:56:10;;;;;;;22.98;7.60;;;12.30;78.90;;;;;;5072645;28;20463;-60
2021/04/30 06:58:36;;;;;;;24.15;7.15;;;12.40;78.80;;;;;;5072015;28;20028;-60
2021/04/30 07:01:03;;;;;;;21.73;7.00;;;12.40;78.60;;;;;;5072725;28;20035;-60
2021/04/30 07:03:29;;;;;;;18.88;6.30;;;12.40;78.10;;;;;;5072813;28;20027;-60
2021/04/30 07:05:55;;;;;;;15.38;6.68;;;12.40;76.90;;;;;;5072063;28;20040;-59
2021/04/30 07:08:21;;;;;;;20.30;6.75;;;12.40;76.90;;;;;;5073210;28;20059;-59
2021/04/30 07:10:46;;;;;;;20.05;7.47;;;12.30;76.50;;;;;;5072860;28;20017;-66
2021/04/30 07:13:13;;;;;;;19.60;6.28;;;12.30;77.10;;;;;;5071870;28;20028;-60
2021/04/30 07:15:39;;;;;;;13.63;7.05;;;12.30;77.30;;;;;;5072788;28;20036;-60
2021/04/30 07:18:05;;;;;;;19.13;7.65;;;12.30;77.40;;;;;;5071824;28;20033;-61
2021/04/30 07:20:33;;;;;;;20.58;6.93;;;12.30;77.50;;;;;;5072472;28;20382;-61
2021/04/30 07:23:00;;;;;;;24.73;6.97;;;12.30;77.60;;;;;;5072471;28;20468;-61
2021/04/30 07:25:26;;;;;;;31.48;8.82;;;12.30;78.00;;;;;;5071828;28;20036;-60
2021/04/30 07:27:52;;;;;;;18.50;6.75;;;12.30;78.10;;;;;;5072461;28;20047;-60
2021/04/30 07:30:18;;;;;;;20.23;7.28;;;12.40;78.10;;;;;;5072771;28;20096;-62
2021/04/30 07:32:44;;;;;;;20.27;7.38;;;12.40;78.20;;;;;;5072124;28;20032;-62
2021/04/30 07:35:10;;;;;;;16.65;6.35;;;12.40;78.10;;;;;;5067088;28;20036;-62
2021/04/30 07:37:39;;;;;;;16.85;7.00;;;12.40;78.00;;;;;;5068613;28;20103;-60
2021/04/30 07:40:07;;;;;;;21.88;7.20;;;12.50;78.00;;;;;;5068153;28;20059;-60
2021/04/30 07:42:33;;;;;;;22.88;9.00;;;12.50;78.10;;;;;;5070221;28;20379;-61
2021/04/30 07:44:58;;;;;;;24.33;6.97;;;12.60;78.20;;;;;;5071815;28;20036;-61
2021/04/30 07:47:24;;;;;;;23.92;6.80;;;12.60;78.10;;;;;;5061611;28;20059;-61
2021/04/30 07:49:50;;;;;;;23.52;6.93;;;12.60;78.00;;;;;;5069868;28;20028;-60
2021/04/30 07:52:15;;;;;;;18.70;6.45;;;12.60;77.90;;;;;;5070717;28;20440;-60
2021/04/30 07:54:41;;;;;;;17.80;6.00;;;12.70;77.60;;;;;;5064368;28;20031;-60
2021/04/30 07:57:07;;;;;;;15.88;6.40;;;12.70;77.10;;;;;;5072516;28;20029;-60
2021/04/30 07:59:33;;;;;;;19.20;7.00;;;12.70;76.70;;;;;;5071595;28;20111;-61
2021/04/30 08:01:59;;;;;;;19.42;6.20;;;12.70;76.70;;;;;;5065318;28;20033;-61
2021/04/30 08:04:25;;;;;;;16.90;6.43;;;12.70;76.50;;;;;;5069444;28;20074;-60
2021/04/30 08:06:50;;;;;;;18.27;6.65;;;12.80;76.30;;;;;;5070208;28;20032;-60
2021/04/30 08:09:16;;;;;;;17.38;6.28;;;12.80;76.30;;;;;;5066529;28;21462;-60
2021/04/30 08:11:42;;;;;;;18.63;6.55;;;12.80;76.00;;;;;;5068842;28;20107;-60
2021/04/30 08:14:08;;;;;;;15.57;5.78;;;12.80;76.00;;;;;;5071600;28;20421;-60
2021/04/30 08:16:37;;;;;;;22.20;6.50;;;12.80;75.80;;;;;;5071204;28;20020;-60
2021/04/30 08:19:04;;;;;;;15.90;6.65;;;12.90;75.60;;;;;;5071989;28;20074;-60
2021/04/30 08:21:31;;;;;;;21.00;6.45;;;12.90;75.40;;;;;;5057685;28;20028;-60
2021/04/30 08:23:57;;;;;;;17.73;6.05;;;12.90;75.10;;;;;;5071782;28;20036;-60
2021/04/30 08:26:23;;;;;;;20.23;6.43;;;12.90;75.00;;;;;;5068736;28;20040;-61
2021/04/30 08:28:50;;;;;;;13.55;5.15;;;13.00;75.10;;;;;;5064148;28;20032;-60
2021/04/30 08:31:16;;;;;;;22.48;6.03;;;13.00;75.00;;;;;;5070423;28;20536;-60
2021/04/30 08:33:42;;;;;;;14.52;5.38;;;13.00;75.20;;;;;;5058941;28;20016;-61
2021/04/30 08:36:08;;;;;;;12.82;6.07;;;13.10;75.20;;;;;;5071411;28;20479;-60
2021/04/30 08:38:34;;;;;;;12.70;5.75;;;13.10;75.20;;;;;;5071937;28;20383;-60
2021/04/30 08:41:00;;;;;;;14.98;6.55;;;13.10;75.10;;;;;;5072130;28;20033;-58
2021/04/30 08:43:26;;;;;;;21.02;6.60;;;13.20;75.60;;;;;;5071125;28;20046;-61
2021/04/30 08:45:54;;;;;;;15.98;6.15;;;13.20;74.70;;;;;;5071729;28;20044;-58
2021/04/30 08:48:21;;;;;;;24.02;6.75;;;13.20;74.70;;;;;;5071998;28;20036;-59
2021/04/30 08:50:47;;;;;;;16.40;5.68;;;13.30;74.70;;;;;;5070974;28;20040;-58
2021/04/30 08:53:13;;;;;;;14.73;5.28;;;13.30;74.60;;;;;;5072428;28;20032;-59
2021/04/30 08:55:39;;;;;;;14.65;5.95;;;13.30;74.30;;;;;;5073777;28;20098;-59
2021/04/30 08:58:08;;;;;;;17.40;6.18;;;13.30;74.10;;;;;;5074262;28;20058;-59
2021/04/30 09:00:33;;;;;;;17.25;6.07;;;13.30;74.10;;;;;;5075080;28;20422;-59
2021/04/30 09:02:59;;;;;;;11.75;5.60;;;13.30;74.00;;;;;;5072495;28;20029;-59
2021/04/30 09:05:28;;;;;;;21.65;6.05;;;13.30;74.10;;;;;;5074158;28;20021;-59
2021/04/30 09:08:01;;;;;;;19.77;6.95;;;13.30;74.30;;;;;;5072212;28;20028;-59
2021/04/30 09:10:35;;;;;;;17.53;6.50;;;13.40;74.80;;;;;;5074947;28;20033;-59
2021/04/30 09:13:11;;;;;;;12.55;5.38;;;13.30;74.60;;;;;;5073258;28;20415;-59
2021/04/30 09:15:38;;;;;;;16.30;6.10;;;13.30;74.50;;;;;;5075007;28;20384;-59
2021/04/30 09:18:33;;;;;;;22.38;6.40;;;13.40;74.50;;;;;;5073772;28;20483;-60
2021/04/30 09:21:08;;;;;;;14.40;6.07;;;13.30;74.40;;;;;;5061803;28;20487;-60
2021/04/30 09:23:48;;;;;;;18.05;7.00;;;13.40;74.40;;;;;;5066957;28;20032;-59
2021/04/30 09:26:28;;;;;;;18.88;6.32;;;13.30;74.10;;;;;;5073749;28;20056;-59
2021/04/30 09:29:05;;;;;;;15.20;6.03;;;13.30;73.90;;;;;;5072894;28;20037;-59
2021/04/30 09:31:42;;;;;;;18.38;5.72;;;13.40;74.00;;;;;;5074621;28;20024;-59
2021/04/30 09:34:35;;;;;;;15.20;5.88;;;13.40;74.00;;;;;;5074567;28;20024;-59
2021/04/30 09:37:13;;;;;;;14.57;5.57;;;13.40;74.10;;;;;;5071505;28;20055;-59
2021/04/30 09:39:59;;;;;;;19.70;6.15;;;13.40;74.00;;;;;;5075229;28;20035;-59
2021/04/30 09:42:27;;;;;;;17.10;6.18;;;13.50;74.30;;;;;;5068537;28;20383;-60
2021/04/30 09:45:05;;;;;;;18.65;6.63;;;13.50;74.30;;;;;;5073717;28;20033;-59
2021/04/30 09:47:34;;;;;;;22.10;7.80;;;13.40;74.20;;;;;;5068935;28;20552;-59
2021/04/30 09:50:05;;;;;;;11.07;6.55;;;13.50;74.50;;;;;;5068919;28;20104;-60
2021/04/30 09:52:31;;;;;;;18.58;6.50;;;13.50;74.60;;;;;;5074405;28;20119;-60
2021/04/30 09:55:01;;;;;;;21.60;7.18;;;13.50;74.40;;;;;;5072505;28;20127;-60
2021/04/30 09:57:28;;;;;;;14.18;5.55;;;13.50;74.10;;;;;;5074358;28;20074;-60
2021/04/30 10:00:13;;;;;;;23.02;6.35;;;13.60;73.90;;;;;;5067849;28;20123;-59
2021/04/30 10:02:39;;;;;;;13.43;5.80;;;13.60;73.70;;;;;;5071022;28;20036;-61
2021/04/30 10:05:21;;;;;;;24.83;6.10;;;13.60;73.60;;;;;;5074214;28;20032;-60
2021/04/30 10:07:48;;;;;;;21.15;6.30;;;13.60;73.50;;;;;;5072052;28;20041;-59
2021/04/30 10:10:15;;;;;;;16.65;7.28;;;13.60;72.80;;;;;;5070235;28;20089;-59
2021/04/30 10:12:43;;;;;;;16.73;6.03;;;13.60;72.40;;;;;;5070774;28;20024;-59
2021/04/30 10:15:10;;;;;;;18.42;7.00;;;13.60;72.00;;;;;;5070012;28;20032;-59
2021/04/30 10:17:37;;;;;;;11.68;6.60;;;13.60;71.70;;;;;;5074074;28;20035;-58
2021/04/30 10:20:09;;;;;;;14.75;6.70;;;13.70;72.00;;;;;;5062827;28;20052;-59
2021/04/30 10:22:40;;;;;;;12.23;6.38;;;13.60;72.20;;;;;;5072976;28;20028;-59
2021/04/30 10:25:11;;;;;;;16.10;5.88;;;13.70;71.70;;;;;;5073497;28;20086;-59
2021/04/30 10:27:42;;;;;;;15.25;6.22;;;13.70;71.60;;;;;;5073708;28;20039;-59
2021/04/30 10:30:14;;;;;;;14.18;6.18;;;13.70;71.50;;;;;;5069045;28;20491;-59
2021/04/30 10:33:03;;;;;;;13.77;5.82;;;13.80;71.20;;;;;;5073615;28;20038;-59
2021/04/30 10:35:34;;;;;;;12.13;5.97;;;13.70;70.70;;;;;;5041262;28;20037;-58
2021/04/30 10:38:09;;;;;;;11.18;6.22;;;13.80;70.20;;;;;;5070790;28;20047;-58
2021/04/30 10:40:49;;;;;;;9.15;6.18;;;13.80;70.00;;;;;;5070297;28;20751;-57
2021/04/30 10:43:22;;;;;;;11.70;6.10;;;13.80;69.70;;;;;;5069714;28;20031;-58
2021/04/30 10:46:01;;;;;;;11.52;6.78;;;13.80;69.30;;;;;;5069964;28;20048;-66
2021/04/30 10:48:26;;;;;;;12.27;6.47;;;13.80;69.30;;;;;;5066323;28;20036;-59
2021/04/30 10:51:06;;;;;;;9.20;6.05;;;13.70;69.10;;;;;;5069723;28;20094;-59
2021/04/30 10:53:32;;;;;;;9.48;5.78;;;13.70;68.70;;;;;;5070379;28;20048;-58
2021/04/30 10:55:57;;;;;;;10.98;6.43;;;13.70;68.70;;;;;;5069903;28;20064;-58
2021/04/30 10:58:37;;;;;;;17.40;6.18;;;13.80;68.60;;;;;;5070136;28;20024;-59
2021/04/30 11:01:30;;;;;;;11.27;6.00;;;13.80;68.20;;;;;;5070458;28;20435;-58
2021/04/30 11:04:08;;;;;;;10.35;5.85;;;13.80;68.10;;;;;;5068265;28;20066;-59
2021/04/30 11:06:35;;;;;;;13.52;6.13;;;13.80;68.30;;;;;;5070347;28;20040;-58
2021/04/30 11:09:05;;;;;;;9.45;6.03;;;13.80;67.50;;;;;;5071637;28;20089;-59
2021/04/30 11:11:39;;;;;;;11.73;6.28;;;13.80;67.30;;;;;;5071824;28;20040;-59
2021/04/30 11:14:25;;;;;;;19.75;7.00;;;13.80;67.50;;;;;;5065748;28;20047;-59
2021/04/30 11:16:53;;;;;;;25.50;6.60;;;13.80;67.50;;;;;;5070302;28;20024;-59
2021/04/30 11:19:24;;;;;;;9.98;6.13;;;13.80;67.40;;;;;;5072132;28;20021;-59
2021/04/30 11:21:56;;;;;;;12.13;6.65;;;13.90;67.30;;;;;;5069635;28;20556;-60
2021/04/30 11:24:32;;;;;;;11.65;6.78;;;13.90;67.10;;;;;;5072274;28;20021;-59
2021/04/30 11:27:08;;;;;;;11.50;6.35;;;13.90;66.80;;;;;;5069733;28;20095;-60
2021/04/30 11:29:37;;;;;;;10.48;6.47;;;14.00;66.90;;;;;;5072560;28;20032;-60
2021/04/30 11:32:25;;;;;;;15.77;6.82;;;14.00;66.70;;;;;;5071946;28;20032;-59
2021/04/30 11:34:59;;;;;;;15.82;6.82;;;14.00;66.60;;;;;;5072251;28;20028;-60
2021/04/30 11:37:28;;;;;;;11.90;5.88;;;14.10;66.30;;;;;;5064250;28;20071;-61
2021/04/30 11:39:56;;;;;;;14.55;6.78;;;14.00;66.30;;;;;;5067139;28;20021;-65
2021/04/30 11:42:33;;;;;;;26.10;7.70;;;14.10;66.30;;;;;;5071785;28;20522;-59
2021/04/30 11:45:00;;;;;;;25.60;9.05;;;14.10;66.30;;;;;;5070479;28;20472;-60
2021/04/30 11:47:34;;;;;;;18.35;7.50;;;14.10;66.30;;;;;;5070579;28;20046;-59
2021/04/30 11:50:00;;;;;;;11.55;6.68;;;14.20;66.30;;;;;;5068829;28;20028;-68
2021/04/30 11:52:30;;;;;;;13.15;6.95;;;14.10;66.10;;;;;;5071501;28;20368;-61
2021/04/30 11:55:12;;;;;;;11.52;6.72;;;14.20;66.10;;;;;;5072560;28;20021;-61
2021/04/30 11:57:39;;;;;;;12.48;7.32;;;14.10;66.30;;;;;;5072369;28;20029;-61
2021/04/30 12:00:18;;;;;;;15.02;6.70;;;14.20;66.50;;;;;;5071785;28;20036;-61
2021/04/30 12:02:43;;;;;;;12.68;6.95;;;14.20;66.80;;;;;;5072204;28;20467;-65
2021/04/30 12:05:09;;;;;;;12.50;6.57;;;14.20;66.90;;;;;;5072429;28;20089;-61
2021/04/30 12:07:37;;;;;;;11.43;6.93;;;14.20;67.30;;;;;;5071636;28;20097;-62
2021/04/30 12:10:05;;;;;;;13.10;6.20;;;14.20;67.00;;;;;;5072409;28;20459;-62
2021/04/30 12:12:31;;;;;;;12.75;6.53;;;14.20;67.00;;;;;;5072379;28;20048;-62
2021/04/30 12:14:59;;;;;;;11.65;6.65;;;14.20;67.00;;;;;;5071580;28;20039;-62
2021/04/30 12:17:34;;;;;;;10.80;6.65;;;14.20;67.10;;;;;;5072122;28;20106;-62
2021/04/30 12:20:24;;;;;;;13.10;6.65;;;14.20;67.20;;;;;;5062984;28;20032;-61
2021/04/30 12:22:55;;;;;;;11.52;6.18;;;14.20;67.50;;;;;;5051121;28;20033;-61
2021/04/30 12:25:44;;;;;;;10.43;6.32;;;14.20;68.00;;;;;;5067453;28;20028;-61
2021/04/30 12:28:16;;;;;;;12.55;6.93;;;14.20;68.30;;;;;;5063176;28;20060;-60
2021/04/30 12:30:42;;;;;;;12.70;6.75;;;14.20;68.50;;;;;;5068719;28;20020;-60
2021/04/30 12:33:09;;;;;;;10.95;7.43;;;14.20;68.90;;;;;;5070722;28;20471;-68
2021/04/30 12:35:34;;;;;;;13.85;6.93;;;14.20;69.40;;;;;;5074074;28;20024;-60
2021/04/30 12:38:00;;;;;;;11.85;7.32;;;14.20;69.30;;;;;;5070258;28;20074;-61
2021/04/30 12:40:28;;;;;;;13.88;7.82;;;14.30;69.20;;;;;;5071847;28;20043;-60